createdAt,value
2018-03-23T00:01:19.114Z,23.48
2018-03-23T00:03:47.117Z,19.98
2018-03-23T00:06:15.123Z,25.23
2018-03-23T00:08:43.112Z,18.83
2018-03-23T00:11:11.121Z,18.40
2018-03-23T00:13:39.131Z,22.98
2018-03-23T00:16:07.888Z,20.75
2018-03-23T00:18:35.888Z,23.15
2018-03-23T00:21:03.906Z,21.58
2018-03-23T00:23:32.661Z,19.25
2018-03-23T00:26:00.673Z,16.27
2018-03-23T00:28:28.668Z,15.07
2018-03-23T00:30:57.433Z,18.27
2018-03-23T00:33:25.442Z,19.10
2018-03-23T00:35:54.209Z,16.95
2018-03-23T00:38:22.192Z,18.80
2018-03-23T00:40:50.203Z,18.50
2018-03-23T00:43:18.200Z,14.32
2018-03-23T00:45:46.969Z,16.45
2018-03-23T00:48:14.969Z,12.88
2018-03-23T00:50:42.964Z,14.70
2018-03-23T00:53:11.728Z,13.70
2018-03-23T00:55:39.750Z,16.12
2018-03-23T00:58:08.516Z,19.02
2018-03-23T01:00:36.513Z,15.60
2018-03-23T01:03:04.520Z,19.85
2018-03-23T01:05:34.295Z,17.27
2018-03-23T01:08:02.289Z,18.35
2018-03-23T01:10:30.300Z,21.02
2018-03-23T01:12:59.076Z,18.45
2018-03-23T01:15:27.081Z,17.80
2018-03-23T01:17:56.859Z,13.85
2018-03-23T01:20:24.864Z,21.35
2018-03-23T01:22:52.860Z,19.50
2018-03-23T01:25:20.860Z,18.08
2018-03-23T01:27:49.641Z,15.60
2018-03-23T01:30:17.633Z,20.30
2018-03-23T01:32:47.494Z,17.45
2018-03-23T01:35:16.331Z,17.60
2018-03-23T01:37:44.324Z,14.20
2018-03-23T01:40:12.329Z,15.95
2018-03-23T01:42:41.092Z,19.40
2018-03-23T01:45:09.085Z,12.23
2018-03-23T01:47:37.093Z,19.60
2018-03-23T01:50:05.106Z,15.10
2018-03-23T01:52:33.093Z,17.33
2018-03-23T01:55:01.103Z,15.65
2018-03-23T01:57:29.158Z,19.33
2018-03-23T01:59:57.111Z,18.27
2018-03-23T02:02:25.884Z,17.87
2018-03-23T02:04:54.653Z,20.85
2018-03-23T02:07:22.644Z,23.62
2018-03-23T02:09:50.643Z,17.87
2018-03-23T02:12:18.653Z,22.13
2018-03-23T02:14:47.412Z,18.55
2018-03-23T02:17:15.412Z,19.62
2018-03-23T02:19:43.433Z,20.62
2018-03-23T02:22:12.180Z,19.50
2018-03-23T02:24:40.179Z,18.92
2018-03-23T02:27:08.188Z,22.95
2018-03-23T02:29:36.940Z,20.15
2018-03-23T02:32:04.961Z,21.05
2018-03-23T02:34:32.959Z,23.25
2018-03-23T02:37:01.735Z,25.70
2018-03-23T02:39:30.079Z,24.15
2018-03-23T02:41:58.825Z,22.45
2018-03-23T02:44:26.813Z,21.42
2018-03-23T02:46:54.827Z,28.12
2018-03-23T02:49:22.875Z,20.85
2018-03-23T02:51:50.820Z,25.15
2018-03-23T02:54:18.837Z,25.00
2018-03-23T02:56:46.840Z,22.08
2018-03-23T02:59:15.596Z,26.65
2018-03-23T03:01:43.600Z,22.67
2018-03-23T03:04:11.609Z,23.05
2018-03-23T03:06:40.370Z,27.45
2018-03-23T03:09:08.651Z,22.83
2018-03-23T03:11:36.665Z,29.12
2018-03-23T03:14:04.651Z,31.52
2018-03-23T03:16:32.701Z,26.55
2018-03-23T03:19:01.420Z,26.30
2018-03-23T03:21:30.928Z,29.37
2018-03-23T03:23:58.932Z,23.42
2018-03-23T03:26:26.939Z,30.88
2018-03-23T03:28:55.693Z,25.77
2018-03-23T03:31:23.697Z,26.95
2018-03-23T03:33:51.696Z,31.90
2018-03-23T03:36:20.462Z,31.00
2018-03-23T03:38:48.464Z,24.02
2018-03-23T03:41:16.476Z,28.25
2018-03-23T03:43:44.471Z,23.48
2018-03-23T03:46:12.479Z,33.60
2018-03-23T03:48:40.487Z,26.23
2018-03-23T03:51:08.482Z,34.22
2018-03-23T03:53:36.484Z,29.37
2018-03-23T03:56:05.256Z,38.42
2018-03-23T03:58:33.254Z,29.95
2018-03-23T04:01:01.251Z,29.40
2018-03-23T04:03:29.259Z,25.00
2018-03-23T04:05:57.260Z,26.50
2018-03-23T04:08:25.265Z,25.92
2018-03-23T04:10:53.283Z,28.83
2018-03-23T04:13:22.040Z,23.73
2018-03-23T04:15:50.052Z,25.73
2018-03-23T04:18:18.812Z,32.00
2018-03-23T04:20:46.808Z,32.30
2018-03-23T04:23:14.812Z,32.60
2018-03-23T04:25:43.589Z,25.37
2018-03-23T04:28:11.573Z,27.45
2018-03-23T04:30:39.575Z,23.10
2018-03-23T04:33:07.584Z,27.60
2018-03-23T04:35:35.580Z,33.03
2018-03-23T04:38:03.592Z,28.77
2018-03-23T04:40:31.605Z,28.15
2018-03-23T04:42:59.588Z,36.17
2018-03-23T04:45:27.596Z,25.80
2018-03-23T04:47:55.614Z,37.45
2018-03-23T04:50:23.595Z,25.17
2018-03-23T04:52:51.600Z,30.33
2018-03-23T04:55:19.609Z,37.83
2018-03-23T04:57:48.368Z,32.00
2018-03-23T05:00:16.380Z,36.22
2018-03-23T05:02:44.376Z,27.30
2018-03-23T05:05:13.156Z,42.85
2018-03-23T05:07:41.156Z,39.88
2018-03-23T05:10:09.928Z,29.75
2018-03-23T05:12:37.974Z,33.65
2018-03-23T05:15:05.976Z,39.88
2018-03-23T05:17:33.985Z,33.03
2018-03-23T05:20:01.982Z,35.10
2018-03-23T05:22:29.993Z,30.77
2018-03-23T05:24:58.756Z,32.22
2018-03-23T05:27:27.667Z,38.13
2018-03-23T05:29:55.672Z,37.45
2018-03-23T05:32:24.444Z,38.72
2018-03-23T05:34:52.448Z,37.22
2018-03-23T05:37:21.216Z,35.38
2018-03-23T05:39:49.215Z,34.38
2018-03-23T05:42:17.219Z,32.38
2018-03-23T05:44:45.988Z,44.72
2018-03-23T05:47:13.998Z,41.30
2018-03-23T05:49:42.752Z,44.10
2018-03-23T05:52:10.753Z,38.58
2018-03-23T05:54:38.766Z,33.25
2018-03-23T05:57:07.523Z,40.50
2018-03-23T05:59:35.524Z,46.67
2018-03-23T06:02:03.536Z,50.25
2018-03-23T06:04:32.292Z,36.22
2018-03-23T06:07:00.296Z,40.35
2018-03-23T06:09:28.300Z,49.92
2018-03-23T06:11:57.055Z,36.40
2018-03-23T06:14:25.081Z,33.45
2018-03-23T06:16:53.864Z,45.70
2018-03-23T06:19:21.852Z,43.92
2018-03-23T06:21:50.628Z,36.63
2018-03-23T06:24:18.632Z,40.80
2018-03-23T06:26:46.630Z,50.60
2018-03-23T06:29:15.396Z,39.08
2018-03-23T06:31:43.403Z,41.40
2018-03-23T06:34:11.399Z,41.50
2018-03-23T06:36:40.160Z,36.95
2018-03-23T06:39:08.268Z,47.67
2018-03-23T06:41:36.252Z,38.58
2018-03-23T06:44:04.263Z,37.30
2018-03-23T06:46:32.265Z,29.83
2018-03-23T06:49:00.251Z,37.60
2018-03-23T06:51:28.256Z,37.35
2018-03-23T06:53:56.261Z,30.25
2018-03-23T06:56:24.248Z,35.78
2018-03-23T06:58:53.020Z,32.50
2018-03-23T07:01:21.028Z,31.00
2018-03-23T07:03:49.015Z,27.30
2018-03-23T07:06:17.793Z,28.55
2018-03-23T07:08:45.795Z,27.23
2018-03-23T07:11:14.556Z,25.35
2018-03-23T07:13:42.560Z,23.98
2018-03-23T07:16:10.564Z,23.92
2018-03-23T07:18:39.324Z,29.10
2018-03-23T07:21:07.323Z,18.10
2018-03-23T07:23:35.330Z,24.12
2018-03-23T07:26:03.312Z,24.75
2018-03-23T07:28:32.111Z,19.10
2018-03-23T07:31:00.120Z,22.60
2018-03-23T07:33:28.112Z,27.17
2018-03-23T07:35:56.148Z,26.90
2018-03-23T07:38:24.149Z,23.65
2018-03-23T07:40:52.911Z,24.17
2018-03-23T07:43:20.921Z,29.30
2018-03-23T07:45:48.926Z,35.60
2018-03-23T07:48:17.680Z,22.45
2018-03-23T07:50:45.678Z,25.05
2018-03-23T07:53:13.680Z,23.23
2018-03-23T07:55:42.440Z,32.22
2018-03-23T07:58:10.443Z,24.63
2018-03-23T08:00:38.448Z,26.10
2018-03-23T08:03:07.202Z,29.42
2018-03-23T08:05:35.212Z,30.25
2018-03-23T08:08:03.212Z,28.23
2018-03-23T08:10:31.980Z,26.85
2018-03-23T08:12:59.984Z,33.00
2018-03-23T08:15:27.992Z,24.37
2018-03-23T08:17:55.988Z,29.12
2018-03-23T08:20:24.004Z,23.67
2018-03-23T08:22:52.007Z,25.95
2018-03-23T08:25:19.996Z,27.50
2018-03-23T08:27:48.009Z,24.98
2018-03-23T08:30:16.021Z,29.80
2018-03-23T08:32:44.853Z,35.53
2018-03-23T08:35:12.855Z,22.92
2018-03-23T08:37:40.872Z,32.20
2018-03-23T08:40:08.860Z,33.05
2018-03-23T08:42:36.864Z,23.38
2018-03-23T08:45:04.864Z,24.95
2018-03-23T08:47:32.880Z,24.70
2018-03-23T08:50:01.642Z,23.90
2018-03-23T08:52:29.645Z,21.62
2018-03-23T08:54:57.636Z,28.65
2018-03-23T08:57:26.408Z,26.05
2018-03-23T08:59:54.416Z,24.02
2018-03-23T09:02:23.192Z,23.27
2018-03-23T09:04:51.192Z,25.52
2018-03-23T09:07:19.188Z,20.33
2018-03-23T09:09:47.944Z,20.48
2018-03-23T09:12:15.944Z,24.98
2018-03-23T09:14:43.944Z,25.45
2018-03-23T09:17:12.700Z,23.15
2018-03-23T09:19:40.704Z,30.55
2018-03-23T09:22:08.720Z,20.15
2018-03-23T09:24:37.483Z,25.95
2018-03-23T09:27:05.488Z,22.23
2018-03-23T09:29:33.497Z,34.00
2018-03-23T09:32:02.263Z,28.27
2018-03-23T09:34:30.262Z,31.73
2018-03-23T09:36:59.032Z,27.48
2018-03-23T09:39:27.028Z,33.13
2018-03-23T09:41:55.029Z,27.33
2018-03-23T09:44:23.800Z,25.42
2018-03-23T09:46:51.796Z,38.80
2018-03-23T09:49:19.800Z,25.83
2018-03-23T09:51:48.580Z,34.75
2018-03-23T09:54:16.555Z,26.50
2018-03-23T09:56:44.564Z,26.73
2018-03-23T09:59:13.336Z,34.92
2018-03-23T10:01:41.328Z,32.30
2018-03-23T10:04:09.332Z,31.77
2018-03-23T10:06:38.099Z,28.00
2018-03-23T10:09:06.088Z,30.35
2018-03-23T10:11:34.099Z,31.40
2018-03-23T10:14:02.868Z,29.92
2018-03-23T10:16:30.859Z,29.80
2018-03-23T10:18:58.871Z,30.90
2018-03-23T10:21:27.640Z,33.63
2018-03-23T10:23:57.147Z,24.90
2018-03-23T10:26:25.158Z,27.95
2018-03-23T10:28:53.159Z,29.17
2018-03-23T10:31:21.153Z,28.15
2018-03-23T10:33:49.152Z,33.25
2018-03-23T10:36:17.163Z,23.62
2018-03-23T10:38:45.148Z,28.33
2018-03-23T10:41:13.156Z,23.98
2018-03-23T10:43:41.932Z,35.03
2018-03-23T10:46:09.924Z,38.80
2018-03-23T10:48:37.949Z,39.38
2018-03-23T10:51:06.718Z,32.85
2018-03-23T10:53:34.712Z,36.60
2018-03-23T10:56:03.486Z,30.23
2018-03-23T10:58:31.484Z,35.88
2018-03-23T11:01:06.016Z,28.58
2018-03-23T11:03:34.032Z,30.50
2018-03-23T11:06:02.029Z,34.30
2018-03-23T11:08:30.036Z,35.80
2018-03-23T11:10:58.044Z,33.60
2018-03-23T11:13:26.036Z,29.70
2018-03-23T11:15:54.804Z,28.65
2018-03-23T11:18:22.808Z,35.55
2018-03-23T11:20:50.810Z,24.87
2018-03-23T11:23:19.575Z,30.62
2018-03-23T11:25:47.584Z,37.88
2018-03-23T11:28:16.340Z,33.97
2018-03-23T11:30:44.350Z,31.60
2018-03-23T11:33:12.348Z,31.10
2018-03-23T11:35:41.107Z,28.12
2018-03-23T11:38:09.116Z,28.40
2018-03-23T11:40:37.148Z,29.98
2018-03-23T11:43:05.141Z,28.62
2018-03-23T11:45:33.148Z,23.60
2018-03-23T11:48:01.152Z,27.20
2018-03-23T11:50:29.200Z,28.12
2018-03-23T11:52:57.223Z,32.10
2018-03-23T11:55:25.227Z,29.55
2018-03-23T11:57:53.217Z,23.73
2018-03-23T12:00:21.225Z,27.90
2018-03-23T12:02:49.239Z,28.45
2018-03-23T12:05:18.751Z,22.67
2018-03-23T12:07:46.752Z,25.45
2018-03-23T12:10:14.760Z,27.80
2018-03-23T12:12:43.517Z,23.08
2018-03-23T12:15:11.513Z,18.37
2018-03-23T12:17:39.511Z,20.27
2018-03-23T12:20:08.268Z,24.12
2018-03-23T12:22:36.272Z,25.75
2018-03-23T12:25:04.272Z,33.53
2018-03-23T12:27:32.291Z,24.52
2018-03-23T12:30:01.060Z,21.90
2018-03-23T12:32:29.836Z,25.65
2018-03-23T12:34:57.866Z,32.38
2018-03-23T12:37:25.828Z,30.52
2018-03-23T12:39:54.603Z,29.87
2018-03-23T12:42:22.593Z,28.23
2018-03-23T12:44:50.600Z,25.62
2018-03-23T12:47:19.368Z,26.15
2018-03-23T12:49:47.361Z,23.87
2018-03-23T12:52:15.380Z,25.33
2018-03-23T12:54:43.400Z,35.75
2018-03-23T12:57:11.401Z,29.40
2018-03-23T12:59:39.400Z,29.25
2018-03-23T13:02:07.407Z,25.08
2018-03-23T13:04:35.399Z,32.35
2018-03-23T13:07:03.429Z,22.20
2018-03-23T13:09:32.283Z,26.15
2018-03-23T13:12:00.272Z,24.60
2018-03-23T13:14:28.275Z,23.73
2018-03-23T13:16:56.298Z,20.80
2018-03-23T13:19:24.280Z,28.62
2018-03-23T13:21:53.071Z,22.15
2018-03-23T13:24:21.060Z,20.90
2018-03-23T13:26:49.048Z,18.83
2018-03-23T13:29:17.819Z,25.62
2018-03-23T13:31:45.824Z,26.80
2018-03-23T13:34:13.828Z,30.27
2018-03-23T13:36:42.696Z,19.33
2018-03-23T13:39:10.701Z,25.35
2018-03-23T13:41:38.692Z,24.05
2018-03-23T13:44:07.465Z,24.37
2018-03-23T13:46:35.472Z,26.73
2018-03-23T13:49:03.458Z,24.75
2018-03-23T13:51:32.228Z,19.50
2018-03-23T13:54:00.236Z,18.00
2018-03-23T13:56:28.987Z,21.12
2018-03-23T13:59:02.767Z,22.73
2018-03-23T14:01:37.228Z,27.48
2018-03-23T14:04:05.227Z,25.23
2018-03-23T14:06:33.236Z,24.77
2018-03-23T14:09:02.744Z,27.75
2018-03-23T14:11:30.749Z,23.20
2018-03-23T14:13:58.754Z,22.87
2018-03-23T14:16:27.535Z,23.45
2018-03-23T14:18:57.040Z,23.35
2018-03-23T14:21:25.053Z,26.87
2018-03-23T14:23:53.816Z,31.00
2018-03-23T14:26:21.820Z,23.65
2018-03-23T14:28:49.905Z,21.05
2018-03-23T14:31:17.830Z,22.33
2018-03-23T14:33:45.829Z,21.05
2018-03-23T14:36:13.836Z,22.30
2018-03-23T14:38:41.824Z,21.17
2018-03-23T14:41:09.829Z,19.73
2018-03-23T14:43:38.607Z,21.23
2018-03-23T14:46:06.601Z,19.20
2018-03-23T14:48:35.376Z,19.45
2018-03-23T14:51:03.379Z,16.77
2018-03-23T14:53:31.371Z,14.25
2018-03-23T14:56:00.141Z,17.60
2018-03-23T14:58:28.153Z,16.45
2018-03-23T15:00:56.912Z,20.58
2018-03-23T15:03:24.924Z,15.88
2018-03-23T15:05:52.931Z,18.95
2018-03-23T15:08:21.698Z,17.95
2018-03-23T15:10:49.707Z,22.20
2018-03-23T15:13:18.473Z,21.98
2018-03-23T15:15:46.460Z,22.42
2018-03-23T15:18:14.459Z,16.00
2018-03-23T15:20:42.465Z,20.40
2018-03-23T15:23:10.465Z,21.48
2018-03-23T15:25:38.483Z,21.87
2018-03-23T15:28:06.476Z,20.92
2018-03-23T15:30:34.477Z,18.73
2018-03-23T15:33:02.476Z,19.25
2018-03-23T15:35:30.503Z,18.37
2018-03-23T15:37:58.496Z,21.20
2018-03-23T15:40:26.659Z,20.70
2018-03-23T15:42:54.657Z,17.45
2018-03-23T15:45:22.640Z,20.15
2018-03-23T15:47:50.639Z,20.88
2018-03-23T15:50:18.640Z,21.67
2018-03-23T15:52:47.401Z,19.62
2018-03-23T15:55:15.419Z,19.02
2018-03-23T15:57:43.413Z,22.13
2018-03-23T16:00:12.164Z,20.27
2018-03-23T16:02:40.169Z,18.00
2018-03-23T16:05:09.312Z,20.27
2018-03-23T16:07:38.056Z,23.98
2018-03-23T16:10:06.101Z,21.20
2018-03-23T16:12:34.884Z,21.98
2018-03-23T16:15:03.645Z,25.88
2018-03-23T16:17:31.648Z,21.67
2018-03-23T16:19:59.664Z,19.12
2018-03-23T16:22:28.417Z,18.80
2018-03-23T16:24:56.441Z,22.42
2018-03-23T16:27:25.209Z,21.62
2018-03-23T16:29:53.199Z,20.45
2018-03-23T16:32:21.204Z,18.37
2018-03-23T16:34:49.985Z,25.52
2018-03-23T16:37:17.973Z,24.52
2018-03-23T16:39:45.984Z,20.55
2018-03-23T16:42:13.993Z,17.98
2018-03-23T16:44:41.983Z,21.05
2018-03-23T16:47:09.993Z,21.85
2018-03-23T16:49:38.003Z,20.65
2018-03-23T16:52:06.780Z,22.45
2018-03-23T16:54:34.813Z,25.52
2018-03-23T16:57:02.916Z,21.42
2018-03-23T16:59:30.905Z,25.98
2018-03-23T17:01:58.946Z,17.87
2018-03-23T17:04:26.923Z,21.77
2018-03-23T17:06:55.685Z,20.35
2018-03-23T17:09:23.696Z,21.77
2018-03-23T17:11:51.702Z,19.35
2018-03-23T17:14:19.700Z,26.12
2018-03-23T17:16:47.709Z,23.33
2018-03-23T17:19:15.716Z,24.98
2018-03-23T17:21:43.727Z,21.10
2018-03-23T17:24:12.492Z,20.48
2018-03-23T17:26:40.498Z,19.95
2018-03-23T17:29:09.252Z,22.58
2018-03-23T17:31:37.256Z,19.85
2018-03-23T17:34:05.261Z,19.37
2018-03-23T17:36:34.028Z,21.40
2018-03-23T17:39:02.038Z,20.20
2018-03-23T17:41:30.036Z,25.25
2018-03-23T17:43:59.201Z,20.17
2018-03-23T17:46:27.210Z,21.37
2018-03-23T17:48:55.259Z,21.62
2018-03-23T17:51:23.988Z,22.02
2018-03-23T17:53:51.989Z,22.65
2018-03-23T17:56:20.764Z,21.40
2018-03-23T17:58:48.759Z,23.90
2018-03-23T18:01:16.764Z,21.92
2018-03-23T18:03:45.537Z,18.73
2018-03-23T18:06:13.534Z,19.05
2018-03-23T18:08:41.539Z,21.70
2018-03-23T18:11:09.553Z,20.33
2018-03-23T18:13:38.560Z,18.92
2018-03-23T18:16:06.564Z,34.60
2018-03-23T18:18:34.580Z,23.98
2018-03-23T18:21:03.343Z,21.15
2018-03-23T18:23:31.348Z,23.52
2018-03-23T18:25:59.356Z,26.55
2018-03-23T18:28:27.361Z,21.87
2018-03-23T18:30:55.368Z,19.83
2018-03-23T18:33:23.405Z,21.87
2018-03-23T18:35:51.406Z,29.20
2018-03-23T18:38:19.412Z,20.92
2018-03-23T18:40:48.004Z,16.75
2018-03-23T18:43:15.988Z,21.83
2018-03-23T18:45:43.997Z,21.90
2018-03-23T18:48:12.004Z,21.15
2018-03-23T18:50:40.761Z,26.12
2018-03-23T18:53:08.773Z,21.95
2018-03-23T18:55:36.780Z,26.02
2018-03-23T18:58:04.776Z,22.23
2018-03-23T19:00:32.788Z,22.27
2018-03-23T19:03:00.792Z,17.80
2018-03-23T19:05:28.806Z,22.40
2018-03-23T19:07:57.568Z,24.27
2018-03-23T19:10:25.585Z,22.52
2018-03-23T19:12:54.345Z,26.62
2018-03-23T19:15:22.358Z,20.40
2018-03-23T19:17:50.371Z,26.77
2018-03-23T19:20:18.361Z,30.00
2018-03-23T19:22:46.374Z,20.83
2018-03-23T19:25:14.376Z,19.77
2018-03-23T19:27:42.368Z,22.02
2018-03-23T19:30:10.381Z,31.25
2018-03-23T19:32:38.384Z,17.40
2018-03-23T19:35:07.385Z,21.00
2018-03-23T19:37:35.390Z,21.40
2018-03-23T19:40:03.393Z,27.77
2018-03-23T19:42:31.392Z,19.77
2018-03-23T19:45:12.469Z,25.80
2018-03-23T19:47:40.427Z,19.75
2018-03-23T19:50:08.415Z,28.15
2018-03-23T19:52:36.425Z,28.90
2018-03-23T19:55:05.204Z,21.65
2018-03-23T19:57:34.188Z,19.80
2018-03-23T20:00:02.204Z,20.20
2018-03-23T20:02:30.220Z,24.17
2018-03-23T20:04:58.218Z,25.05
2018-03-23T20:07:26.232Z,20.25
2018-03-23T20:09:54.237Z,19.70
2018-03-23T20:12:22.224Z,26.17
2018-03-23T20:14:50.238Z,22.05
2018-03-23T20:17:24.034Z,23.73
2018-03-23T20:19:52.837Z,27.00
2018-03-23T20:22:20.817Z,28.58
2018-03-23T20:24:49.572Z,25.60
2018-03-23T20:30:15.156Z,21.80
2018-03-23T20:32:43.212Z,27.73
2018-03-23T20:35:11.222Z,25.52
2018-03-23T20:37:39.212Z,18.42
2018-03-23T20:40:07.225Z,27.62
2018-03-23T20:42:36.002Z,20.23
2018-03-23T20:45:04.002Z,24.65
2018-03-23T20:47:32.780Z,22.95
2018-03-23T20:50:01.001Z,27.90
2018-03-23T20:52:29.001Z,29.42
2018-03-23T20:54:57.031Z,26.20
2018-03-23T20:57:25.831Z,23.00
2018-03-23T20:59:53.917Z,22.17
2018-03-23T21:02:23.432Z,25.23
2018-03-23T21:04:55.380Z,21.37
2018-03-23T21:07:23.394Z,24.33
2018-03-23T21:09:51.392Z,24.70
2018-03-23T21:12:20.164Z,28.45
2018-03-23T21:14:48.173Z,25.58
2018-03-23T21:17:17.233Z,26.23
2018-03-23T21:19:45.216Z,30.42
2018-03-23T21:22:13.225Z,22.02
2018-03-23T21:24:41.232Z,20.75
2018-03-23T21:27:10.027Z,28.45
2018-03-23T21:29:38.018Z,21.55
2018-03-23T21:32:06.788Z,23.55
2018-03-23T21:34:34.808Z,26.60
2018-03-23T21:37:03.576Z,24.00
2018-03-23T21:39:31.585Z,28.45
2018-03-23T21:42:00.360Z,30.92
2018-03-23T21:44:28.368Z,30.08
2018-03-23T21:46:57.165Z,30.23
2018-03-23T21:49:25.144Z,26.23
2018-03-23T21:51:53.156Z,26.35
2018-03-23T21:54:21.165Z,24.27
2018-03-23T21:56:50.168Z,24.63
2018-03-23T21:59:18.214Z,25.83
2018-03-23T22:01:46.981Z,28.05
2018-03-23T22:04:14.983Z,21.33
2018-03-23T22:06:46.607Z,30.17
2018-03-23T22:09:14.628Z,28.02
2018-03-23T22:11:44.128Z,30.80
2018-03-23T22:14:12.135Z,30.85
2018-03-23T22:16:40.153Z,20.80
2018-03-23T22:19:08.160Z,31.00
2018-03-23T22:21:38.101Z,25.35
2018-03-23T22:24:06.324Z,33.00
2018-03-23T22:26:35.088Z,29.60
2018-03-23T22:29:03.094Z,29.98
2018-03-23T22:31:31.114Z,30.27
2018-03-23T22:34:00.042Z,29.48
2018-03-23T22:36:28.048Z,30.00
2018-03-23T22:38:56.060Z,29.02
2018-03-23T22:41:24.827Z,29.40
2018-03-23T22:43:52.837Z,27.27
2018-03-23T22:46:21.729Z,32.17
2018-03-23T22:48:49.809Z,26.73
2018-03-23T22:51:17.817Z,37.40
2018-03-23T22:53:46.591Z,26.23
2018-03-23T22:56:14.603Z,28.98
2018-03-23T22:58:42.599Z,29.00
2018-03-23T23:01:10.604Z,28.38
2018-03-23T23:03:38.596Z,29.10
2018-03-23T23:06:06.605Z,25.80
2018-03-23T23:08:34.600Z,35.25
2018-03-23T23:11:02.620Z,25.27
2018-03-23T23:13:30.632Z,29.90
2018-03-23T23:15:58.662Z,25.65
2018-03-23T23:18:27.452Z,29.83
2018-03-23T23:20:55.458Z,28.73
2018-03-23T23:23:23.457Z,31.30
2018-03-23T23:25:51.464Z,25.08
2018-03-23T23:28:19.472Z,29.15
2018-03-23T23:30:47.482Z,28.08
2018-03-23T23:33:16.257Z,21.98
2018-03-23T23:35:44.262Z,26.90
2018-03-23T23:38:13.025Z,26.33
2018-03-23T23:40:41.032Z,29.52
2018-03-23T23:43:09.040Z,30.05
2018-03-23T23:45:37.032Z,30.05
2018-03-23T23:48:05.044Z,27.27
2018-03-23T23:50:33.049Z,30.90
2018-03-23T23:53:01.049Z,24.65
2018-03-23T23:55:29.044Z,25.67
2018-03-23T23:57:57.824Z,31.00
